sensor_id;sensor_type;location;lat;lon;timestamp;pressure;altitude;pressure_sealevel;temperature;humidity
69971;BME280;57301;50.328;8.542;2023-04-15T00:00:55;97660.19;;;0.95;95.71
69971;BME280;57301;50.328;8.542;2023-04-15T00:03:22;97657.91;;;0.91;96.52
69971;BME280;57301;50.328;8.542;2023-04-15T00:05:50;97655.38;;;0.89;96.20
69971;BME280;57301;50.328;8.542;2023-04-15T00:08:17;97649.94;;;0.92;96.48
69971;BME280;57301;50.328;8.542;2023-04-15T00:10:43;97652.09;;;0.98;96.45
69971;BME280;57301;50.328;8.542;2023-04-15T00:13:12;97656.72;;;0.95;96.08
69971;BME280;57301;50.328;8.542;2023-04-15T00:15:38;97659.19;;;0.85;96.14
69971;BME280;57301;50.328;8.542;2023-04-15T00:18:04;97661.44;;;0.78;97.09
69971;BME280;57301;50.328;8.542;2023-04-15T00:20:33;97660.00;;;0.74;96.90
69971;BME280;57301;50.328;8.542;2023-04-15T00:23:00;97658.53;;;0.70;96.80
69971;BME280;57301;50.328;8.542;2023-04-15T00:25:27;97656.13;;;0.67;97.50
69971;BME280;57301;50.328;8.542;2023-04-15T00:27:54;97652.22;;;0.73;97.11
69971;BME280;57301;50.328;8.542;2023-04-15T00:30:21;97650.03;;;0.67;96.94
69971;BME280;57301;50.328;8.542;2023-04-15T00:32:47;97637.38;;;0.61;97.90
69971;BME280;57301;50.328;8.542;2023-04-15T00:35:14;97641.59;;;0.63;97.69
69971;BME280;57301;50.328;8.542;2023-04-15T00:37:41;97632.97;;;0.61;98.35
69971;BME280;57301;50.328;8.542;2023-04-15T00:40:12;97643.25;;;0.64;98.09
69971;BME280;57301;50.328;8.542;2023-04-15T00:42:38;97631.47;;;0.70;98.17
69971;BME280;57301;50.328;8.542;2023-04-15T00:45:05;97636.47;;;0.73;97.80
69971;BME280;57301;50.328;8.542;2023-04-15T00:47:32;97634.44;;;0.65;97.55
69971;BME280;57301;50.328;8.542;2023-04-15T00:50:00;97634.28;;;0.56;97.83
69971;BME280;57301;50.328;8.542;2023-04-15T00:52:27;97633.94;;;0.36;98.68
69971;BME280;57301;50.328;8.542;2023-04-15T00:54:54;97634.00;;;0.47;99.03
69971;BME280;57301;50.328;8.542;2023-04-15T00:57:21;97631.16;;;0.26;99.31
69971;BME280;57301;50.328;8.542;2023-04-15T00:59:48;97633.72;;;0.15;100.00
69971;BME280;57301;50.328;8.542;2023-04-15T01:02:14;97634.44;;;0.17;100.00
69971;BME280;57301;50.328;8.542;2023-04-15T01:04:41;97636.97;;;0.19;100.00
69971;BME280;57301;50.328;8.542;2023-04-15T01:07:08;97634.16;;;0.33;100.00
69971;BME280;57301;50.328;8.542;2023-04-15T01:09:35;97630.91;;;0.30;100.00
69971;BME280;57301;50.328;8.542;2023-04-15T01:12:01;97629.31;;;0.40;100.00
69971;BME280;57301;50.328;8.542;2023-04-15T01:14:29;97622.41;;;0.39;99.97
69971;BME280;57301;50.328;8.542;2023-04-15T01:16:55;97634.13;;;0.46;99.15
69971;BME280;57301;50.328;8.542;2023-04-15T01:19:23;97629.53;;;0.37;98.47
69971;BME280;57301;50.328;8.542;2023-04-15T01:21:49;97633.09;;;0.36;97.91
69971;BME280;57301;50.328;8.542;2023-04-15T01:24:17;97629.38;;;0.27;98.19
69971;BME280;57301;50.328;8.542;2023-04-15T01:26:44;97632.31;;;0.22;98.81
69971;BME280;57301;50.328;8.542;2023-04-15T01:29:11;97633.28;;;0.21;98.28
69971;BME280;57301;50.328;8.542;2023-04-15T01:31:38;97644.31;;;0.14;98.68
69971;BME280;57301;50.328;8.542;2023-04-15T01:34:05;97639.59;;;0.06;99.38
69971;BME280;57301;50.328;8.542;2023-04-15T01:36:31;97631.41;;;0.11;99.38
69971;BME280;57301;50.328;8.542;2023-04-15T01:38:58;97625.44;;;0.09;100.00
69971;BME280;57301;50.328;8.542;2023-04-15T01:41:26;97627.50;;;0.16;99.49
69971;BME280;57301;50.328;8.542;2023-04-15T01:43:53;97640.69;;;0.28;98.78
69971;BME280;57301;50.328;8.542;2023-04-15T01:46:19;97636.28;;;0.28;98.13
69971;BME280;57301;50.328;8.542;2023-04-15T01:48:46;97631.88;;;0.29;97.65
69971;BME280;57301;50.328;8.542;2023-04-15T01:51:12;97629.38;;;0.27;97.82
69971;BME280;57301;50.328;8.542;2023-04-15T01:53:39;97633.28;;;0.21;98.23
69971;BME280;57301;50.328;8.542;2023-04-15T01:56:06;97628.16;;;0.20;98.44
69971;BME280;57301;50.328;8.542;2023-04-15T01:58:32;97628.16;;;0.20;98.02
69971;BME280;57301;50.328;8.542;2023-04-15T02:00:59;97633.91;;;0.12;98.55
69971;BME280;57301;50.328;8.542;2023-04-15T02:03:27;97629.84;;;0.08;98.39
69971;BME280;57301;50.328;8.542;2023-04-15T02:05:55;97637.31;;;0.02;98.85
69971;BME280;57301;50.328;8.542;2023-04-15T02:08:22;97642.44;;;0.03;99.04
69971;BME280;57301;50.328;8.542;2023-04-15T02:10:48;97634.34;;;0.06;99.60
69971;BME280;57301;50.328;8.542;2023-04-15T02:13:15;97637.28;;;0.14;99.18
69971;BME280;57301;50.328;8.542;2023-04-15T02:15:48;97638.94;;;0.15;98.98
69971;BME280;57301;50.328;8.542;2023-04-15T02:18:15;97636.25;;;0.04;98.91
69971;BME280;57301;50.328;8.542;2023-04-15T02:20:42;97645.31;;;0.00;98.61
69971;BME280;57301;50.328;8.542;2023-04-15T02:23:09;97646.06;;;-0.11;99.23
69971;BME280;57301;50.328;8.542;2023-04-15T02:25:36;97644.28;;;-0.10;99.84
69971;BME280;57301;50.328;8.542;2023-04-15T02:28:04;97648.03;;;-0.14;99.61
69971;BME280;57301;50.328;8.542;2023-04-15T02:30:32;97640.31;;;-0.16;99.79
69971;BME280;57301;50.328;8.542;2023-04-15T02:33:00;97644.81;;;-0.18;99.66
69971;BME280;57301;50.328;8.542;2023-04-15T02:35:26;97638.63;;;-0.17;99.45
69971;BME280;57301;50.328;8.542;2023-04-15T02:37:53;97641.88;;;-0.26;99.18
69971;BME280;57301;50.328;8.542;2023-04-15T02:40:19;97646.91;;;-0.23;99.61
69971;BME280;57301;50.328;8.542;2023-04-15T02:42:46;97643.97;;;-0.18;99.68
69971;BME280;57301;50.328;8.542;2023-04-15T02:45:12;97649.44;;;-0.21;99.49
69971;BME280;57301;50.328;8.542;2023-04-15T02:47:39;97650.50;;;-0.24;99.15
69971;BME280;57301;50.328;8.542;2023-04-15T02:50:07;97643.16;;;-0.32;99.65
69971;BME280;57301;50.328;8.542;2023-04-15T02:52:35;97641.50;;;-0.45;100.00
69971;BME280;57301;50.328;8.542;2023-04-15T02:55:01;97642.75;;;-0.38;100.00
69971;BME280;57301;50.328;8.542;2023-04-15T02:57:29;97643.78;;;-0.28;100.00
69971;BME280;57301;50.328;8.542;2023-04-15T02:59:56;97646.09;;;-0.23;99.88
69971;BME280;57301;50.328;8.542;2023-04-15T03:02:23;97644.63;;;-0.28;100.00
69971;BME280;57301;50.328;8.542;2023-04-15T03:04:49;97649.44;;;-0.34;100.00
69971;BME280;57301;50.328;8.542;2023-04-15T03:07:17;97652.59;;;-0.29;100.00
69971;BME280;57301;50.328;8.542;2023-04-15T03:09:44;97646.50;;;-0.30;100.00
69971;BME280;57301;50.328;8.542;2023-04-15T03:12:11;97643.25;;;-0.33;99.33
69971;BME280;57301;50.328;8.542;2023-04-15T03:14:37;97648.31;;;-0.43;99.41
69971;BME280;57301;50.328;8.542;2023-04-15T03:17:04;97647.78;;;-0.48;99.50
69971;BME280;57301;50.328;8.542;2023-04-15T03:19:30;97647.03;;;-0.50;99.60
69971;BME280;57301;50.328;8.542;2023-04-15T03:21:57;97645.91;;;-0.59;100.00
69971;BME280;57301;50.328;8.542;2023-04-15T03:24:23;97641.09;;;-0.65;100.00
69971;BME280;57301;50.328;8.542;2023-04-15T03:26:50;97640.38;;;-0.54;100.00
69971;BME280;57301;50.328;8.542;2023-04-15T03:29:16;97630.50;;;-0.50;100.00
69971;BME280;57301;50.328;8.542;2023-04-15T03:31:43;97630.59;;;-0.39;100.00
69971;BME280;57301;50.328;8.542;2023-04-15T03:34:09;97632.91;;;-0.35;100.00
69971;BME280;57301;50.328;8.542;2023-04-15T03:36:36;97632.47;;;-0.29;99.65
69971;BME280;57301;50.328;8.542;2023-04-15T03:39:02;97633.09;;;-0.38;99.42
69971;BME280;57301;50.328;8.542;2023-04-15T03:41:29;97628.50;;;-0.47;99.94
69971;BME280;57301;50.328;8.542;2023-04-15T03:43:56;97628.53;;;-0.60;99.87
69971;BME280;57301;50.328;8.542;2023-04-15T03:46:22;97622.66;;;-0.63;100.00
69971;BME280;57301;50.328;8.542;2023-04-15T03:48:49;97627.59;;;-0.59;100.00
69971;BME280;57301;50.328;8.542;2023-04-15T03:51:15;97631.75;;;-0.69;100.00
69971;BME280;57301;50.328;8.542;2023-04-15T03:53:42;97622.13;;;-0.68;100.00
69971;BME280;57301;50.328;8.542;2023-04-15T03:56:08;97630.09;;;-0.70;100.00
69971;BME280;57301;50.328;8.542;2023-04-15T03:58:35;97625.16;;;-0.62;100.00
69971;BME280;57301;50.328;8.542;2023-04-15T04:01:02;97623.41;;;-0.61;100.00
69971;BME280;57301;50.328;8.542;2023-04-15T04:03:28;97620.38;;;-0.55;100.00
69971;BME280;57301;50.328;8.542;2023-04-15T04:05:55;97625.19;;;-0.49;100.00
69971;BME280;57301;50.328;8.542;2023-04-15T04:08:22;97614.47;;;-0.46;100.00
69971;BME280;57301;50.328;8.542;2023-04-15T04:10:48;97611.66;;;-0.43;100.00
69971;BME280;57301;50.328;8.542;2023-04-15T04:13:14;97621.19;;;-0.42;100.00
69971;BME280;57301;50.328;8.542;2023-04-15T04:15:41;97620.34;;;-0.42;99.94
69971;BME280;57301;50.328;8.542;2023-04-15T04:18:08;97621.50;;;-0.46;100.00
69971;BME280;57301;50.328;8.542;2023-04-15T04:20:34;97623.59;;;-0.51;100.00
69971;BME280;57301;50.328;8.542;2023-04-15T04:23:01;97621.19;;;-0.42;99.72
69971;BME280;57301;50.328;8.542;2023-04-15T04:25:27;97626.94;;;-0.49;99.98
69971;BME280;57301;50.328;8.542;2023-04-15T04:27:54;97627.38;;;-0.43;100.00
69971;BME280;57301;50.328;8.542;2023-04-15T04:30:20;97625.59;;;-0.42;100.00
69971;BME280;57301;50.328;8.542;2023-04-15T04:32:48;97624.53;;;-0.40;100.00
69971;BME280;57301;50.328;8.542;2023-04-15T04:35:16;97620.44;;;-0.44;100.00
69971;BME280;57301;50.328;8.542;2023-04-15T04:37:42;97628.25;;;-0.31;100.00
69971;BME280;57301;50.328;8.542;2023-04-15T04:40:09;97632.25;;;-0.25;100.00
69971;BME280;57301;50.328;8.542;2023-04-15T04:42:36;97626.91;;;-0.24;100.00
69971;BME280;57301;50.328;8.542;2023-04-15T04:45:05;97623.81;;;-0.05;100.00
69971;BME280;57301;50.328;8.542;2023-04-15T04:47:32;97627.28;;;-0.05;100.00
69971;BME280;57301;50.328;8.542;2023-04-15T04:49:59;97621.03;;;0.09;99.70
69971;BME280;57301;50.328;8.542;2023-04-15T04:52:25;97629.63;;;0.11;99.37
69971;BME280;57301;50.328;8.542;2023-04-15T04:54:52;97635.63;;;0.13;99.02
69971;BME280;57301;50.328;8.542;2023-04-15T04:57:18;97633.00;;;0.13;98.65
69971;BME280;57301;50.328;8.542;2023-04-15T04:59:45;97619.13;;;0.11;99.22
69971;BME280;57301;50.328;8.542;2023-04-15T05:02:11;97631.66;;;0.08;98.77
69971;BME280;57301;50.328;8.542;2023-04-15T05:04:38;97630.03;;;-0.06;99.21
69971;BME280;57301;50.328;8.542;2023-04-15T05:07:05;97629.97;;;0.07;100.00
69971;BME280;57301;50.328;8.542;2023-04-15T05:09:31;97631.28;;;0.12;100.00
69971;BME280;57301;50.328;8.542;2023-04-15T05:11:58;97634.94;;;0.22;99.68
69971;BME280;57301;50.328;8.542;2023-04-15T05:14:25;97630.38;;;0.13;99.27
69971;BME280;57301;50.328;8.542;2023-04-15T05:16:51;97637.88;;;0.18;99.60
69971;BME280;57301;50.328;8.542;2023-04-15T05:19:18;97638.06;;;0.28;99.37
69971;BME280;57301;50.328;8.542;2023-04-15T05:21:44;97639.19;;;0.36;98.90
69971;BME280;57301;50.328;8.542;2023-04-15T05:24:11;97642.44;;;0.40;98.95
69971;BME280;57301;50.328;8.542;2023-04-15T05:26:37;97644.34;;;0.49;98.78
69971;BME280;57301;50.328;8.542;2023-04-15T05:29:04;97646.97;;;0.49;98.28
69971;BME280;57301;50.328;8.542;2023-04-15T05:31:31;97646.53;;;0.55;98.41
69971;BME280;57301;50.328;8.542;2023-04-15T05:34:00;97646.38;;;0.69;99.07
69971;BME280;57301;50.328;8.542;2023-04-15T05:36:27;97643.44;;;0.74;98.46
69971;BME280;57301;50.328;8.542;2023-04-15T05:38:54;97647.47;;;0.78;98.23
69971;BME280;57301;50.328;8.542;2023-04-15T05:41:20;97654.00;;;0.72;98.90
69971;BME280;57301;50.328;8.542;2023-04-15T05:43:47;97656.69;;;0.84;98.55
69971;BME280;57301;50.328;8.542;2023-04-15T05:46:14;97659.81;;;0.89;97.89
69971;BME280;57301;50.328;8.542;2023-04-15T05:48:40;97666.47;;;0.82;97.95
69971;BME280;57301;50.328;8.542;2023-04-15T05:51:07;97659.56;;;0.92;97.25
69971;BME280;57301;50.328;8.542;2023-04-15T05:53:33;97671.84;;;0.91;98.05
69971;BME280;57301;50.328;8.542;2023-04-15T05:56:00;97672.34;;;0.96;97.78
69971;BME280;57301;50.328;8.542;2023-04-15T05:58:26;97675.34;;;1.03;98.02
69971;BME280;57301;50.328;8.542;2023-04-15T06:00:53;97671.47;;;1.20;97.21
69971;BME280;57301;50.328;8.542;2023-04-15T06:03:20;97677.38;;;1.46;96.47
69971;BME280;57301;50.328;8.542;2023-04-15T06:05:47;97672.50;;;1.64;95.54
69971;BME280;57301;50.328;8.542;2023-04-15T06:08:13;97674.41;;;1.84;95.61
69971;BME280;57301;50.328;8.542;2023-04-15T06:10:43;97675.50;;;1.93;95.03
69971;BME280;57301;50.328;8.542;2023-04-15T06:13:09;97671.66;;;2.08;94.05
69971;BME280;57301;50.328;8.542;2023-04-15T06:15:36;97669.63;;;2.11;93.12
69971;BME280;57301;50.328;8.542;2023-04-15T06:18:03;97678.13;;;2.15;93.30
69971;BME280;57301;50.328;8.542;2023-04-15T06:20:29;97676.50;;;2.46;92.53
69971;BME280;57301;50.328;8.542;2023-04-15T06:22:56;97683.31;;;2.49;92.15
69971;BME280;57301;50.328;8.542;2023-04-15T06:25:22;97681.41;;;2.83;91.02
69971;BME280;57301;50.328;8.542;2023-04-15T06:27:49;97680.41;;;2.95;89.90
69971;BME280;57301;50.328;8.542;2023-04-15T06:30:18;97680.56;;;3.14;90.39
69971;BME280;57301;50.328;8.542;2023-04-15T06:32:45;97694.19;;;3.40;90.29
69971;BME280;57301;50.328;8.542;2023-04-15T06:35:11;97688.66;;;3.64;90.17
69971;BME280;57301;50.328;8.542;2023-04-15T06:37:38;97684.44;;;4.13;88.90
69971;BME280;57301;50.328;8.542;2023-04-15T06:40:05;97688.06;;;4.22;86.75
69971;BME280;57301;50.328;8.542;2023-04-15T06:42:32;97687.47;;;4.78;85.53
69971;BME280;57301;50.328;8.542;2023-04-15T06:44:59;97684.03;;;5.35;84.64
69971;BME280;57301;50.328;8.542;2023-04-15T06:47:26;97691.50;;;5.40;82.30
69971;BME280;57301;50.328;8.542;2023-04-15T06:49:52;97687.78;;;5.99;81.07
69971;BME280;57301;50.328;8.542;2023-04-15T06:52:19;97681.25;;;5.93;80.50
69971;BME280;57301;50.328;8.542;2023-04-15T06:54:45;97694.88;;;5.89;81.69
69971;BME280;57301;50.328;8.542;2023-04-15T06:57:12;97690.16;;;5.83;81.50
69971;BME280;57301;50.328;8.542;2023-04-15T06:59:38;97693.38;;;5.86;81.36
69971;BME280;57301;50.328;8.542;2023-04-15T07:02:06;97693.09;;;5.99;81.00
69971;BME280;57301;50.328;8.542;2023-04-15T07:04:36;97692.59;;;6.13;82.15
69971;BME280;57301;50.328;8.542;2023-04-15T07:07:03;97697.25;;;6.39;82.70
69971;BME280;57301;50.328;8.542;2023-04-15T07:09:29;97693.59;;;6.67;82.54
69971;BME280;57301;50.328;8.542;2023-04-15T07:11:57;97690.97;;;6.85;80.46
69971;BME280;57301;50.328;8.542;2023-04-15T07:14:24;97693.00;;;6.73;81.14
69971;BME280;57301;50.328;8.542;2023-04-15T07:16:50;97695.22;;;6.96;80.47
69971;BME280;57301;50.328;8.542;2023-04-15T07:19:17;97695.13;;;7.06;80.38
69971;BME280;57301;50.328;8.542;2023-04-15T07:21:43;97695.44;;;6.85;83.27
69971;BME280;57301;50.328;8.542;2023-04-15T07:24:10;97693.16;;;6.90;83.30
69971;BME280;57301;50.328;8.542;2023-04-15T07:26:36;97688.25;;;6.95;84.41
69971;BME280;57301;50.328;8.542;2023-04-15T07:29:03;97688.31;;;6.85;84.45
69971;BME280;57301;50.328;8.542;2023-04-15T07:31:29;97695.00;;;7.07;84.12
69971;BME280;57301;50.328;8.542;2023-04-15T07:33:56;97698.09;;;7.20;84.45
69971;BME280;57301;50.328;8.542;2023-04-15T07:36:24;97700.22;;;7.17;83.72
69971;BME280;57301;50.328;8.542;2023-04-15T07:38:50;97695.50;;;7.28;83.21
69971;BME280;57301;50.328;8.542;2023-04-15T07:41:17;97689.13;;;7.57;82.73
69971;BME280;57301;50.328;8.542;2023-04-15T07:43:43;97699.84;;;7.73;82.95
69971;BME280;57301;50.328;8.542;2023-04-15T07:46:10;97692.66;;;7.92;82.31
69971;BME280;57301;50.328;8.542;2023-04-15T07:48:37;97689.94;;;8.09;82.99
69971;BME280;57301;50.328;8.542;2023-04-15T07:51:03;97696.69;;;8.04;82.36
69971;BME280;57301;50.328;8.542;2023-04-15T07:53:30;97694.38;;;8.01;82.44
69971;BME280;57301;50.328;8.542;2023-04-15T07:55:58;97691.44;;;8.12;82.98
69971;BME280;57301;50.328;8.542;2023-04-15T07:58:24;97692.69;;;8.34;80.37
69971;BME280;57301;50.328;8.542;2023-04-15T08:00:51;97688.34;;;8.59;77.17
69971;BME280;57301;50.328;8.542;2023-04-15T08:03:18;97690.34;;;8.65;77.75
69971;BME280;57301;50.328;8.542;2023-04-15T08:05:44;97688.63;;;8.90;75.45
69971;BME280;57301;50.328;8.542;2023-04-15T08:08:12;97686.16;;;9.05;74.34
69971;BME280;57301;50.328;8.542;2023-04-15T08:10:39;97688.63;;;9.06;74.90
69971;BME280;57301;50.328;8.542;2023-04-15T08:13:06;97689.31;;;9.17;74.27
69971;BME280;57301;50.328;8.542;2023-04-15T08:15:33;97680.00;;;9.45;72.52
69971;BME280;57301;50.328;8.542;2023-04-15T08:17:59;97678.84;;;9.64;68.10
69971;BME280;57301;50.328;8.542;2023-04-15T08:20:26;97674.34;;;9.73;65.22
69971;BME280;57301;50.328;8.542;2023-04-15T08:22:53;97687.28;;;9.92;63.63
69971;BME280;57301;50.328;8.542;2023-04-15T08:25:19;97683.59;;;10.09;64.68
69971;BME280;57301;50.328;8.542;2023-04-15T08:27:47;97692.56;;;10.25;64.46
69971;BME280;57301;50.328;8.542;2023-04-15T08:30:13;97685.28;;;10.58;62.22
69971;BME280;57301;50.328;8.542;2023-04-15T08:32:46;97686.63;;;10.93;61.43
69971;BME280;57301;50.328;8.542;2023-04-15T08:35:13;97692.34;;;11.36;61.54
69971;BME280;57301;50.328;8.542;2023-04-15T08:37:40;97679.84;;;11.51;58.61
69971;BME280;57301;50.328;8.542;2023-04-15T08:40:09;97689.91;;;11.64;57.37
69971;BME280;57301;50.328;8.542;2023-04-15T08:42:40;97681.44;;;11.83;57.32
69971;BME280;57301;50.328;8.542;2023-04-15T08:45:10;97693.75;;;11.84;55.05
69971;BME280;57301;50.328;8.542;2023-04-15T08:47:37;97687.88;;;11.66;53.70
69971;BME280;57301;50.328;8.542;2023-04-15T08:50:07;97687.00;;;12.11;54.44
69971;BME280;57301;50.328;8.542;2023-04-15T08:52:34;97685.91;;;12.35;53.06
69971;BME280;57301;50.328;8.542;2023-04-15T08:55:02;97681.72;;;11.88;52.09
69971;BME280;57301;50.328;8.542;2023-04-15T08:57:30;97687.13;;;11.80;52.57
69971;BME280;57301;50.328;8.542;2023-04-15T08:59:57;97685.84;;;11.53;53.20
69971;BME280;57301;50.328;8.542;2023-04-15T09:02:24;97689.28;;;11.39;52.05
69971;BME280;57301;50.328;8.542;2023-04-15T09:04:52;97691.16;;;11.76;53.04
69971;BME280;57301;50.328;8.542;2023-04-15T09:07:19;97687.16;;;11.95;53.11
69971;BME280;57301;50.328;8.542;2023-04-15T09:09:47;97686.44;;;12.01;53.19
69971;BME280;57301;50.328;8.542;2023-04-15T09:12:14;97694.34;;;12.09;53.45
69971;BME280;57301;50.328;8.542;2023-04-15T09:14:44;97695.75;;;12.05;54.15
69971;BME280;57301;50.328;8.542;2023-04-15T09:17:11;97695.91;;;11.66;54.30
69971;BME280;57301;50.328;8.542;2023-04-15T09:19:38;97697.78;;;11.19;54.10
69971;BME280;57301;50.328;8.542;2023-04-15T09:22:05;97693.59;;;11.17;53.76
69971;BME280;57301;50.328;8.542;2023-04-15T09:24:36;97706.69;;;11.03;54.23
69971;BME280;57301;50.328;8.542;2023-04-15T09:27:04;97699.97;;;10.85;55.46
69971;BME280;57301;50.328;8.542;2023-04-15T09:29:31;97711.72;;;10.67;54.67
69971;BME280;57301;50.328;8.542;2023-04-15T09:32:11;97713.66;;;10.51;55.40
69971;BME280;57301;50.328;8.542;2023-04-15T09:34:37;97718.34;;;10.40;55.90
69971;BME280;57301;50.328;8.542;2023-04-15T09:37:04;97715.34;;;10.35;56.16
69971;BME280;57301;50.328;8.542;2023-04-15T09:39:49;97724.53;;;10.25;56.82
69971;BME280;57301;50.328;8.542;2023-04-15T09:42:16;97724.06;;;10.13;56.25
69971;BME280;57301;50.328;8.542;2023-04-15T09:44:50;97722.03;;;10.15;57.59
69971;BME280;57301;50.328;8.542;2023-04-15T09:47:31;97722.06;;;9.99;57.53
69971;BME280;57301;50.328;8.542;2023-04-15T09:49:59;97724.56;;;10.00;58.41
69971;BME280;57301;50.328;8.542;2023-04-15T09:52:29;97721.72;;;9.93;58.61
69971;BME280;57301;50.328;8.542;2023-04-15T09:54:57;97732.69;;;10.15;59.98
69971;BME280;57301;50.328;8.542;2023-04-15T09:57:24;97737.84;;;10.25;59.32
69971;BME280;57301;50.328;8.542;2023-04-15T09:59:51;97741.53;;;10.32;58.82
69971;BME280;57301;50.328;8.542;2023-04-15T10:02:18;97734.84;;;10.36;60.12
69971;BME280;57301;50.328;8.542;2023-04-15T10:04:49;97737.50;;;10.36;58.19
69971;BME280;57301;50.328;8.542;2023-04-15T10:07:17;97738.66;;;10.41;58.53
69971;BME280;57301;50.328;8.542;2023-04-15T10:09:47;97749.47;;;10.48;58.83
69971;BME280;57301;50.328;8.542;2023-04-15T10:12:18;97742.31;;;10.40;59.04
69971;BME280;57301;50.328;8.542;2023-04-15T10:14:52;97750.59;;;10.54;57.82
69971;BME280;57301;50.328;8.542;2023-04-15T10:17:21;97750.88;;;10.67;57.62
69971;BME280;57301;50.328;8.542;2023-04-15T10:19:52;97753.31;;;10.93;57.63
69971;BME280;57301;50.328;8.542;2023-04-15T10:22:19;97750.91;;;11.06;57.69
69971;BME280;57301;50.328;8.542;2023-04-15T10:24:47;97761.91;;;11.03;57.74
69971;BME280;57301;50.328;8.542;2023-04-15T10:27:15;97764.94;;;11.23;57.36
69971;BME280;57301;50.328;8.542;2023-04-15T10:29:43;97755.53;;;11.35;56.27
69971;BME280;57301;50.328;8.542;2023-04-15T10:32:10;97760.47;;;11.69;56.80
69971;BME280;57301;50.328;8.542;2023-04-15T10:34:38;97763.97;;;11.70;56.28
69971;BME280;57301;50.328;8.542;2023-04-15T10:37:08;97755.91;;;12.01;54.76
69971;BME280;57301;50.328;8.542;2023-04-15T10:39:38;97766.78;;;12.14;56.05
69971;BME280;57301;50.328;8.542;2023-04-15T10:42:07;97762.50;;;11.90;54.84
69971;BME280;57301;50.328;8.542;2023-04-15T10:44:35;97769.19;;;11.63;54.81
69971;BME280;57301;50.328;8.542;2023-04-15T10:47:18;97775.03;;;11.90;55.48
69971;BME280;57301;50.328;8.542;2023-04-15T10:49:57;97770.41;;;11.83;54.35
69971;BME280;57301;50.328;8.542;2023-04-15T10:52:25;97772.72;;;11.87;54.32
69971;BME280;57301;50.328;8.542;2023-04-15T10:55:13;97773.84;;;11.92;55.29
69971;BME280;57301;50.328;8.542;2023-04-15T10:57:43;97774.78;;;11.99;55.12
69971;BME280;57301;50.328;8.542;2023-04-15T11:00:11;97777.16;;;11.48;56.52
69971;BME280;57301;50.328;8.542;2023-04-15T11:05:13;97785.31;;;11.24;58.46
69971;BME280;57301;50.328;8.542;2023-04-15T11:13:14;97790.38;;;10.71;62.74
69971;BME280;57301;50.328;8.542;2023-04-15T11:15:46;97796.06;;;10.68;62.99
69971;BME280;57301;50.328;8.542;2023-04-15T11:18:25;97797.13;;;10.51;63.68
69971;BME280;57301;50.328;8.542;2023-04-15T11:20:59;97804.97;;;10.44;64.99
69971;BME280;57301;50.328;8.542;2023-04-15T11:25:56;97819.47;;;10.34;66.77
69971;BME280;57301;50.328;8.542;2023-04-15T11:28:33;97825.97;;;10.23;69.53
69971;BME280;57301;50.328;8.542;2023-04-15T11:31:11;97827.63;;;10.08;68.45
69971;BME280;57301;50.328;8.542;2023-04-15T11:33:44;97828.78;;;10.13;71.77
69971;BME280;57301;50.328;8.542;2023-04-15T11:36:11;97838.78;;;9.95;72.29
69971;BME280;57301;50.328;8.542;2023-04-15T11:38:41;97837.28;;;10.09;73.02
69971;BME280;57301;50.328;8.542;2023-04-15T11:41:08;97840.75;;;9.93;74.23
69971;BME280;57301;50.328;8.542;2023-04-15T11:43:34;97845.06;;;9.94;73.86
69971;BME280;57301;50.328;8.542;2023-04-15T11:46:02;97848.09;;;10.07;75.03
69971;BME280;57301;50.328;8.542;2023-04-15T11:48:34;97850.22;;;9.79;74.64
69971;BME280;57301;50.328;8.542;2023-04-15T11:51:03;97851.56;;;9.83;76.43
69971;BME280;57301;50.328;8.542;2023-04-15T11:56:10;97854.91;;;10.02;77.90
69971;BME280;57301;50.328;8.542;2023-04-15T11:58:37;97855.91;;;9.84;78.03
69971;BME280;57301;50.328;8.542;2023-04-15T12:01:05;97861.06;;;10.02;77.77
69971;BME280;57301;50.328;8.542;2023-04-15T12:03:40;97861.19;;;9.68;78.74
69971;BME280;57301;50.328;8.542;2023-04-15T12:06:11;97874.69;;;9.75;78.57
69971;BME280;57301;50.328;8.542;2023-04-15T12:11:18;97881.81;;;9.58;82.05
69971;BME280;57301;50.328;8.542;2023-04-15T12:13:49;97873.84;;;9.58;81.82
69971;BME280;57301;50.328;8.542;2023-04-15T12:16:19;97881.09;;;9.39;82.51
69971;BME280;57301;50.328;8.542;2023-04-15T12:18:49;97886.72;;;9.28;82.91
69971;BME280;57301;50.328;8.542;2023-04-15T12:21:25;97886.34;;;9.23;83.94
69971;BME280;57301;50.328;8.542;2023-04-15T12:23:56;97898.53;;;9.34;83.76
69971;BME280;57301;50.328;8.542;2023-04-15T12:26:32;97898.53;;;9.00;83.48
69971;BME280;57301;50.328;8.542;2023-04-15T12:29:03;97903.69;;;9.01;82.72
69971;BME280;57301;50.328;8.542;2023-04-15T12:31:30;97904.38;;;9.03;82.72
69971;BME280;57301;50.328;8.542;2023-04-15T12:33:57;97913.47;;;8.93;83.17
69971;BME280;57301;50.328;8.542;2023-04-15T12:36:25;97914.09;;;8.86;84.18
69971;BME280;57301;50.328;8.542;2023-04-15T12:38:52;97916.50;;;8.98;84.64
69971;BME280;57301;50.328;8.542;2023-04-15T12:41:21;97916.38;;;8.81;86.05
69971;BME280;57301;50.328;8.542;2023-04-15T12:43:49;97926.66;;;8.76;85.04
69971;BME280;57301;50.328;8.542;2023-04-15T12:46:16;97920.75;;;8.65;84.19
69971;BME280;57301;50.328;8.542;2023-04-15T12:48:43;97922.94;;;8.69;84.87
69971;BME280;57301;50.328;8.542;2023-04-15T12:51:09;97920.53;;;8.58;84.97
69971;BME280;57301;50.328;8.542;2023-04-15T12:53:36;97929.13;;;8.52;84.00
69971;BME280;57301;50.328;8.542;2023-04-15T12:56:02;97926.00;;;8.56;83.44
69971;BME280;57301;50.328;8.542;2023-04-15T12:58:29;97932.69;;;8.60;84.37
69971;BME280;57301;50.328;8.542;2023-04-15T13:00:55;97931.88;;;8.60;84.10
69971;BME280;57301;50.328;8.542;2023-04-15T13:03:22;97937.25;;;8.50;83.30
69971;BME280;57301;50.328;8.542;2023-04-15T13:05:49;97938.72;;;8.45;83.81
69971;BME280;57301;50.328;8.542;2023-04-15T13:08:16;97928.06;;;8.63;83.63
69971;BME280;57301;50.328;8.542;2023-04-15T13:10:44;97924.13;;;8.49;83.67
69971;BME280;57301;50.328;8.542;2023-04-15T13:13:10;97921.84;;;8.54;84.94
69971;BME280;57301;50.328;8.542;2023-04-15T13:15:37;97928.44;;;8.68;85.18
69971;BME280;57301;50.328;8.542;2023-04-15T13:18:05;97924.19;;;8.57;85.11
69971;BME280;57301;50.328;8.542;2023-04-15T13:20:32;97934.19;;;8.63;86.26
69971;BME280;57301;50.328;8.542;2023-04-15T13:22:59;97932.63;;;8.52;85.83